Aviation Digital Data Service (ADDS)

Output produced by METARs form (0746 UTC 01 August 2014)
found at http://aviationweather.gov/adds/metars/
 
KCLT 010744Z 0108/0206 VRB04KT P6SM -SHRA OVC007 
     TEMPO 0108/0112 02005KT -SHRA OVC010 
     FM011600 11007KT P6SM -SHRA OVC023 
     PROB30 0119/0124 4SM TSRA OVC013CB 
     FM020300 08005KT P6SM VCSH OVC008